Time;durP1;ratioP1;P1;durP2;ratioP2;P2;SDS_P1;SDS_P2;PMS_P1;PMS_P2;Temp;Humidity;BMP_temperature;BMP_pressure;BME280_temperature;BME280_humidity;BME280_pressure;Samples;Min_cycle;Max_cycle;Signal;HPM_P1;HPM_P2
2022/09/19 00:01:20;;;;;;;10.95;2.22;;;22.50;99.90;;;;;;5049913;28;20036;-71
2022/09/19 00:03:55;;;;;;;8.07;2.35;;;22.50;99.90;;;;;;5050526;28;20036;-71
2022/09/19 00:06:21;;;;;;;12.85;2.92;;;22.50;99.90;;;;;;5050729;28;20032;-71
2022/09/19 00:08:48;;;;;;;11.55;2.28;;;22.40;99.90;;;;;;5050822;28;20033;-70
2022/09/19 00:11:17;;;;;;;12.20;2.60;;;22.30;99.90;;;;;;5050370;28;20485;-72
2022/09/19 00:13:47;;;;;;;10.98;2.72;;;22.30;99.90;;;;;;5050269;28;20454;-71
2022/09/19 00:16:18;;;;;;;13.25;2.30;;;22.30;99.90;;;;;;5050911;28;20020;-71
2022/09/19 00:18:46;;;;;;;10.50;2.50;;;22.30;99.90;;;;;;5050803;28;20515;-71
2022/09/19 00:21:28;;;;;;;13.57;3.17;;;22.30;99.90;;;;;;5050786;28;20158;-71
2022/09/19 00:26:39;;;;;;;9.02;2.53;;;22.20;99.90;;;;;;5050503;28;20498;-71
2022/09/19 00:29:07;;;;;;;12.93;2.35;;;22.20;99.90;;;;;;5050211;28;20028;-71
2022/09/19 00:31:33;;;;;;;8.93;2.30;;;22.20;99.90;;;;;;5050111;28;20107;-71
2022/09/19 00:34:05;;;;;;;14.07;2.33;;;22.20;99.90;;;;;;5050457;28;20044;-71
2022/09/19 00:36:31;;;;;;;11.65;2.45;;;22.30;99.90;;;;;;5048868;28;20194;-72
2022/09/19 00:38:57;;;;;;;8.00;2.30;;;22.30;99.90;;;;;;5050386;28;20406;-71
2022/09/19 00:41:26;;;;;;;10.20;2.28;;;22.30;99.90;;;;;;5050264;28;20167;-71
2022/09/19 00:43:57;;;;;;;8.32;1.92;;;22.30;99.90;;;;;;5050437;28;20022;-71
2022/09/19 00:46:30;;;;;;;11.68;2.05;;;22.40;99.90;;;;;;5050065;28;20112;-72
2022/09/19 00:49:03;;;;;;;12.18;2.17;;;22.30;99.90;;;;;;5050089;28;20029;-71
2022/09/19 00:51:35;;;;;;;12.73;2.30;;;22.30;99.90;;;;;;5050562;28;20031;-71
2022/09/19 00:54:36;;;;;;;11.30;2.35;;;22.30;99.90;;;;;;5050466;28;20481;-71
2022/09/19 00:57:04;;;;;;;10.27;2.20;;;22.30;99.90;;;;;;5050580;28;20067;-72
2022/09/19 00:59:36;;;;;;;8.95;2.22;;;22.40;99.90;;;;;;5050426;28;20040;-72
2022/09/19 01:02:05;;;;;;;10.90;3.00;;;22.30;99.90;;;;;;5050340;28;20428;-71
2022/09/19 01:04:35;;;;;;;10.95;2.55;;;22.40;99.90;;;;;;5050474;28;20052;-72
2022/09/19 01:07:28;;;;;;;12.52;2.85;;;22.40;99.90;;;;;;5050315;28;20443;-71
2022/09/19 01:10:11;;;;;;;13.95;2.20;;;22.40;99.90;;;;;;5050235;28;20453;-71
2022/09/19 01:12:59;;;;;;;16.40;2.00;;;22.40;99.90;;;;;;5053091;28;20053;-71
2022/09/19 01:15:54;;;;;;;10.98;2.47;;;22.30;99.90;;;;;;5054133;28;20071;-71
2022/09/19 01:18:43;;;;;;;12.00;2.50;;;22.30;99.90;;;;;;5054358;28;20461;-71
2022/09/19 01:24:25;;;;;;;11.82;2.60;;;22.30;99.90;;;;;;5054161;28;20083;-71
2022/09/19 01:27:09;;;;;;;13.23;2.20;;;22.20;99.90;;;;;;5053781;28;20033;-71
2022/09/19 01:29:48;;;;;;;12.27;2.22;;;22.20;99.90;;;;;;5053979;28;20342;-71
2022/09/19 01:32:20;;;;;;;8.85;2.15;;;22.10;99.90;;;;;;5053463;28;20478;-72
2022/09/19 01:34:55;;;;;;;9.43;2.13;;;22.20;99.90;;;;;;5053857;28;20044;-72
2022/09/19 01:37:46;;;;;;;11.55;2.13;;;22.20;99.90;;;;;;5053494;28;20106;-72
2022/09/19 01:40:15;;;;;;;11.73;2.50;;;22.20;99.90;;;;;;5053085;28;20033;-72
2022/09/19 01:42:56;;;;;;;11.90;2.15;;;22.20;99.90;;;;;;5053675;28;20033;-72
2022/09/19 01:45:36;;;;;;;10.95;2.33;;;22.20;99.90;;;;;;5053297;28;20029;-71
2022/09/19 01:48:09;;;;;;;13.52;2.58;;;22.10;99.90;;;;;;5053867;28;20021;-72
2022/09/19 01:50:48;;;;;;;9.60;2.20;;;22.20;99.90;;;;;;5053424;28;20033;-72
2022/09/19 01:53:34;;;;;;;13.45;2.67;;;22.10;99.90;;;;;;5053373;28;20068;-71
2022/09/19 01:56:11;;;;;;;9.98;2.30;;;22.10;99.90;;;;;;5053432;28;20049;-71
2022/09/19 01:58:48;;;;;;;15.18;2.42;;;22.00;99.90;;;;;;5053431;28;20044;-71
2022/09/19 02:01:19;;;;;;;9.65;2.70;;;21.90;99.90;;;;;;5053478;28;20051;-72
2022/09/19 02:04:14;;;;;;;17.13;3.25;;;21.80;99.90;;;;;;5053022;28;20069;-72
2022/09/19 02:06:48;;;;;;;11.65;2.75;;;21.80;99.90;;;;;;5051744;28;20469;-72
2022/09/19 02:09:30;;;;;;;11.18;2.47;;;21.80;99.90;;;;;;5053014;28;20139;-71
2022/09/19 02:12:01;;;;;;;14.63;2.50;;;21.90;99.90;;;;;;5053315;28;20033;-73
2022/09/19 02:14:31;;;;;;;13.45;2.58;;;21.90;99.90;;;;;;5053130;28;20036;-71
2022/09/19 02:17:11;;;;;;;11.88;2.28;;;22.00;99.90;;;;;;5052854;28;20029;-71
2022/09/19 02:19:43;;;;;;;13.77;3.47;;;22.00;99.90;;;;;;5053148;28;20029;-72
2022/09/19 02:22:16;;;;;;;9.88;2.03;;;22.00;99.90;;;;;;5052736;28;20032;-71
2022/09/19 02:24:45;;;;;;;11.13;2.38;;;22.00;99.90;;;;;;5051730;28;20021;-71
2022/09/19 02:27:21;;;;;;;8.73;2.60;;;22.00;99.90;;;;;;5051405;28;20422;-71
2022/09/19 02:29:57;;;;;;;9.40;2.00;;;22.10;99.90;;;;;;5052908;28;20029;-71
2022/09/19 02:32:24;;;;;;;8.13;2.28;;;22.10;99.90;;;;;;5052428;28;20401;-71
2022/09/19 02:34:53;;;;;;;13.65;2.42;;;22.20;99.90;;;;;;5052577;28;20025;-71
2022/09/19 02:37:29;;;;;;;8.25;2.00;;;22.20;99.90;;;;;;5052755;28;20033;-71
2022/09/19 02:40:22;;;;;;;9.90;2.33;;;22.30;99.90;;;;;;5052819;28;20025;-71
2022/09/19 02:42:52;;;;;;;12.38;1.90;;;22.30;99.90;;;;;;5052544;28;20029;-71
2022/09/19 02:45:32;;;;;;;13.43;1.88;;;22.30;99.90;;;;;;5052457;28;20525;-72
2022/09/19 02:48:13;;;;;;;7.32;2.03;;;22.30;99.90;;;;;;5052439;28;20531;-72
2022/09/19 02:50:47;;;;;;;11.90;2.00;;;22.30;99.90;;;;;;5052405;28;20438;-72
2022/09/19 02:53:19;;;;;;;10.23;2.30;;;22.40;99.90;;;;;;5052418;28;20099;-71
2022/09/19 02:55:56;;;;;;;13.13;1.80;;;22.40;99.90;;;;;;5052021;28;20040;-71
2022/09/19 02:58:25;;;;;;;9.32;1.88;;;22.40;99.90;;;;;;5052738;28;20044;-71
2022/09/19 03:00:56;;;;;;;11.82;2.25;;;22.40;99.90;;;;;;5052431;28;20027;-71
2022/09/19 03:06:35;;;;;;;10.10;2.50;;;22.30;99.90;;;;;;5052359;28;20126;-71
2022/09/19 03:09:02;;;;;;;17.00;2.85;;;22.10;99.90;;;;;;5052425;28;20545;-70
2022/09/19 03:11:33;;;;;;;11.60;2.45;;;21.90;99.90;;;;;;5052039;28;20024;-71
2022/09/19 03:14:00;;;;;;;15.45;2.67;;;21.90;99.90;;;;;;5052230;28;20440;-70
2022/09/19 03:16:34;;;;;;;13.68;2.53;;;21.90;99.90;;;;;;5052128;28;20025;-70
2022/09/19 03:19:03;;;;;;;10.48;2.33;;;21.90;99.90;;;;;;5052231;28;20354;-71
2022/09/19 03:21:30;;;;;;;10.20;2.28;;;21.90;99.90;;;;;;5051881;28;20437;-70
2022/09/19 03:23:58;;;;;;;14.80;2.53;;;21.90;99.90;;;;;;5052948;28;20032;-70
2022/09/19 03:26:34;;;;;;;10.13;2.30;;;21.90;99.90;;;;;;5053408;28;20017;-70
2022/09/19 03:29:03;;;;;;;14.80;2.17;;;21.90;99.90;;;;;;5053792;28;20066;-71
2022/09/19 03:31:30;;;;;;;8.15;2.00;;;22.00;99.90;;;;;;5053155;28;20069;-70
2022/09/19 03:33:56;;;;;;;14.70;2.35;;;22.00;99.90;;;;;;5053293;28;20423;-71
2022/09/19 03:36:24;;;;;;;10.57;2.25;;;22.00;99.90;;;;;;5052452;28;20093;-71
2022/09/19 03:38:50;;;;;;;9.20;2.20;;;22.00;99.90;;;;;;5053350;28;20025;-71
2022/09/19 03:41:21;;;;;;;10.02;2.25;;;22.00;99.90;;;;;;5053304;28;20028;-71
2022/09/19 03:43:47;;;;;;;12.73;2.40;;;22.00;99.90;;;;;;5053178;28;20040;-71
2022/09/19 03:46:22;;;;;;;15.02;2.35;;;22.00;99.90;;;;;;5053062;28;20465;-71
2022/09/19 03:48:48;;;;;;;8.43;1.77;;;22.00;99.90;;;;;;5053052;28;20040;-71
2022/09/19 03:51:16;;;;;;;14.30;2.20;;;22.10;99.90;;;;;;5052990;28;20508;-71
2022/09/19 03:53:43;;;;;;;10.10;2.65;;;22.10;99.90;;;;;;5052979;28;20496;-71
2022/09/19 03:56:10;;;;;;;11.07;2.63;;;22.10;99.90;;;;;;5053010;28;20033;-72
2022/09/19 03:58:37;;;;;;;12.88;2.70;;;22.10;99.90;;;;;;5053123;28;20021;-71
2022/09/19 04:01:06;;;;;;;10.93;2.22;;;22.00;99.90;;;;;;5053321;28;20071;-71
2022/09/19 04:03:33;;;;;;;15.45;2.45;;;21.90;99.90;;;;;;5052974;28;20090;-71
2022/09/19 04:06:00;;;;;;;11.88;2.35;;;21.90;99.90;;;;;;5053228;28;20017;-71
2022/09/19 04:08:28;;;;;;;9.18;2.65;;;21.90;99.90;;;;;;5053062;28;20474;-73
2022/09/19 04:10:54;;;;;;;9.70;2.50;;;21.90;99.90;;;;;;5052642;28;20124;-71
2022/09/19 04:13:21;;;;;;;12.93;2.70;;;21.80;99.90;;;;;;5052982;28;20411;-71
2022/09/19 04:15:49;;;;;;;9.55;2.92;;;21.70;99.90;;;;;;5053090;28;20035;-71
2022/09/19 04:18:16;;;;;;;13.07;3.55;;;21.70;99.90;;;;;;5053627;28;20036;-71
2022/09/19 04:20:42;;;;;;;17.58;2.70;;;21.70;99.90;;;;;;5053079;28;20033;-71
2022/09/19 04:23:10;;;;;;;16.92;2.60;;;21.70;99.90;;;;;;5053522;28;20032;-71
2022/09/19 04:25:36;;;;;;;11.90;2.72;;;21.80;99.90;;;;;;5053269;28;20075;-71
2022/09/19 04:28:04;;;;;;;11.50;2.72;;;21.90;99.90;;;;;;5053297;28;20029;-71
2022/09/19 04:30:31;;;;;;;14.05;2.70;;;22.00;99.90;;;;;;5053495;28;20040;-71
2022/09/19 04:32:58;;;;;;;8.13;2.13;;;22.00;99.90;;;;;;5052898;28;20049;-71
2022/09/19 04:35:24;;;;;;;9.70;2.42;;;22.00;99.90;;;;;;5053026;28;20021;-71
2022/09/19 04:37:50;;;;;;;11.80;2.70;;;22.00;99.90;;;;;;5052976;28;20025;-71
2022/09/19 04:40:16;;;;;;;10.23;2.92;;;22.00;99.90;;;;;;5052723;28;20032;-71
2022/09/19 04:42:43;;;;;;;17.25;2.72;;;22.00;99.90;;;;;;5052675;28;20028;-71
2022/09/19 04:45:09;;;;;;;15.00;2.78;;;22.00;99.90;;;;;;5051559;28;20424;-72
2022/09/19 04:47:38;;;;;;;10.60;2.63;;;22.00;99.90;;;;;;5055623;28;20075;-71
2022/09/19 04:50:08;;;;;;;7.78;1.98;;;21.90;99.90;;;;;;5056640;28;20037;-72
2022/09/19 04:52:34;;;;;;;13.60;2.75;;;22.00;99.90;;;;;;5057146;28;20032;-71
2022/09/19 04:55:01;;;;;;;18.48;3.22;;;22.00;99.90;;;;;;5057160;28;20453;-71
2022/09/19 04:57:27;;;;;;;14.40;2.95;;;21.90;99.90;;;;;;5056597;28;20484;-71
2022/09/19 04:59:55;;;;;;;23.48;3.10;;;21.80;99.90;;;;;;5057253;28;20466;-71
2022/09/19 05:02:21;;;;;;;16.27;3.60;;;21.70;99.90;;;;;;5056568;28;20020;-71
2022/09/19 05:04:47;;;;;;;18.45;3.38;;;21.70;99.90;;;;;;5056513;28;20029;-71
2022/09/19 05:07:14;;;;;;;16.58;3.40;;;21.80;99.90;;;;;;5056444;28;20035;-71
2022/09/19 05:09:43;;;;;;;17.10;3.47;;;21.80;99.90;;;;;;5056193;28;20029;-72
2022/09/19 05:12:09;;;;;;;13.65;3.70;;;21.80;99.90;;;;;;5056648;28;20021;-71
2022/09/19 05:14:36;;;;;;;17.98;4.03;;;21.80;99.90;;;;;;5056344;28;20021;-71
2022/09/19 05:17:02;;;;;;;12.88;3.60;;;21.90;99.90;;;;;;5056153;28;20108;-71
2022/09/19 05:19:28;;;;;;;13.68;3.38;;;22.00;99.90;;;;;;5056628;28;20032;-71
2022/09/19 05:21:54;;;;;;;21.02;3.60;;;22.10;99.90;;;;;;5056379;28;20025;-71
2022/09/19 05:24:20;;;;;;;12.85;3.50;;;22.20;99.90;;;;;;5055855;28;20037;-71
2022/09/19 05:26:47;;;;;;;11.90;3.28;;;22.20;99.90;;;;;;5056579;28;20072;-72
2022/09/19 05:29:13;;;;;;;14.25;3.50;;;22.40;99.90;;;;;;5055443;28;20428;-71
2022/09/19 05:31:41;;;;;;;14.45;3.47;;;22.50;99.90;;;;;;5054967;28;20147;-71
2022/09/19 05:34:10;;;;;;;16.27;3.45;;;22.60;99.90;;;;;;5054708;28;20099;-71
2022/09/19 05:36:36;;;;;;;19.30;3.30;;;22.70;99.90;;;;;;5055151;28;20017;-71
2022/09/19 05:39:02;;;;;;;20.67;3.85;;;22.80;99.90;;;;;;5054846;28;20108;-71
2022/09/19 05:41:28;;;;;;;16.50;3.03;;;22.80;99.90;;;;;;5053390;28;20171;-71
2022/09/19 05:43:54;;;;;;;14.35;3.72;;;23.00;99.90;;;;;;5053090;28;20116;-73
2022/09/19 05:46:20;;;;;;;15.85;3.40;;;23.30;99.90;;;;;;5054566;28;20067;-72
2022/09/19 05:48:49;;;;;;;16.40;3.30;;;23.80;99.90;;;;;;5054450;28;20397;-71
2022/09/19 05:51:15;;;;;;;16.60;3.95;;;24.40;99.90;;;;;;5054179;28;20033;-71
2022/09/19 05:53:54;;;;;;;14.80;4.15;;;25.00;99.90;;;;;;5054279;28;20029;-71
2022/09/19 05:56:21;;;;;;;14.07;3.75;;;25.40;99.90;;;;;;5054235;28;20049;-72
2022/09/19 05:58:48;;;;;;;14.63;3.65;;;25.60;99.90;;;;;;5052908;28;20058;-72
2022/09/19 06:01:14;;;;;;;17.83;3.95;;;25.70;99.90;;;;;;5054624;28;20021;-72
2022/09/19 06:03:40;;;;;;;19.30;4.25;;;25.70;99.90;;;;;;5053673;28;20032;-72
2022/09/19 06:06:13;;;;;;;16.25;4.07;;;26.10;99.90;;;;;;5053773;28;20025;-72
2022/09/19 06:08:41;;;;;;;17.35;3.83;;;26.70;99.90;;;;;;5054474;28;20021;-71
2022/09/19 06:11:09;;;;;;;16.92;3.58;;;27.50;99.90;;;;;;5052956;28;20343;-71
2022/09/19 06:16:20;;;;;;;13.77;3.85;;;28.60;99.90;;;;;;5053838;28;20041;-72
2022/09/19 06:18:46;;;;;;;;;;;28.90;99.90;;;;;;5055087;28;20064;-73
2022/09/19 06:21:12;;;;;;;12.80;3.53;;;29.20;99.90;;;;;;5053148;28;20400;-72
2022/09/19 06:23:40;;;;;;;12.60;2.90;;;29.40;99.90;;;;;;5054494;28;20470;-71
2022/09/19 06:26:06;;;;;;;15.02;3.10;;;29.80;99.90;;;;;;5054534;28;20036;-73
2022/09/19 06:28:33;;;;;;;17.90;3.45;;;30.10;99.90;;;;;;5054889;28;20029;-72
2022/09/19 06:31:02;;;;;;;11.98;3.40;;;30.60;99.90;;;;;;5054242;28;20029;-73
2022/09/19 06:33:28;;;;;;;13.07;2.88;;;30.90;99.90;;;;;;5053074;28;20059;-72
2022/09/19 06:36:01;;;;;;;14.13;3.28;;;31.20;99.90;;;;;;5054346;28;20029;-71
2022/09/19 06:38:30;;;;;;;10.05;2.60;;;32.10;99.90;;;;;;5054467;28;20119;-72
2022/09/19 06:40:56;;;;;;;12.48;3.30;;;31.70;99.90;;;;;;5054294;28;20028;-72
2022/09/19 06:43:22;;;;;;;;;;;32.40;99.90;;;;;;5054822;28;20047;-72
2022/09/19 06:45:48;;;;;;;13.15;3.22;;;31.90;99.90;;;;;;5054246;28;20361;-72
2022/09/19 06:48:14;;;;;;;;;;;31.70;99.90;;;;;;5054519;28;20055;-71
2022/09/19 06:50:46;;;;;;;13.43;3.35;;;31.30;99.90;;;;;;5054009;28;19912;-71
2022/09/19 06:53:12;;;;;;;15.13;2.92;;;31.30;99.90;;;;;;5054444;28;20043;-72
2022/09/19 06:55:38;;;;;;;17.60;3.10;;;32.10;99.90;;;;;;5053925;28;20116;-73
2022/09/19 06:58:05;;;;;;;11.05;3.22;;;33.00;99.90;;;;;;5053805;28;20469;-72
2022/09/19 07:00:36;;;;;;;14.43;2.90;;;33.10;99.90;;;;;;5053915;28;20140;-73
2022/09/19 07:03:05;;;;;;;15.00;3.30;;;33.20;99.90;;;;;;5054192;28;20162;-73
2022/09/19 07:05:34;;;;;;;13.50;3.05;;;33.00;99.90;;;;;;5053975;28;20493;-72
2022/09/19 07:08:00;;;;;;;13.20;2.92;;;32.60;99.90;;;;;;5053537;28;20032;-72
2022/09/19 07:10:27;;;;;;;10.13;2.85;;;32.80;99.90;;;;;;5053042;28;20039;-72
2022/09/19 07:12:59;;;;;;;13.05;3.08;;;33.50;99.90;;;;;;5053069;28;20197;-72
2022/09/19 07:15:25;;;;;;;10.65;3.10;;;33.10;99.90;;;;;;5053614;28;20047;-72
2022/09/19 07:17:55;;;;;;;12.13;3.10;;;33.50;99.90;;;;;;5053256;28;20017;-72
2022/09/19 07:20:22;;;;;;;15.35;3.05;;;34.10;99.90;;;;;;5053691;28;20033;-72
2022/09/19 07:23:01;;;;;;;14.70;2.90;;;34.50;99.90;;;;;;5053495;28;20108;-72
2022/09/19 07:25:28;;;;;;;11.57;2.80;;;34.90;99.90;;;;;;5053792;28;20355;-73
2022/09/19 07:27:56;;;;;;;13.30;3.10;;;34.10;99.90;;;;;;5053003;28;20036;-72
2022/09/19 07:30:22;;;;;;;16.00;3.78;;;32.40;99.90;;;;;;5052980;28;20454;-72
2022/09/19 07:32:48;;;;;;;10.68;3.15;;;31.50;99.90;;;;;;5052431;28;20511;-73
2022/09/19 07:35:14;;;;;;;11.73;2.80;;;31.30;99.90;;;;;;5053140;28;20025;-72
2022/09/19 07:37:40;;;;;;;9.93;2.45;;;30.50;99.90;;;;;;5052850;28;20036;-72
2022/09/19 07:40:07;;;;;;;9.02;2.58;;;30.40;99.90;;;;;;5052648;28;20074;-72
2022/09/19 07:42:33;;;;;;;12.35;2.85;;;30.40;99.90;;;;;;5053025;28;20039;-72
2022/09/19 07:44:59;;;;;;;9.73;2.60;;;30.50;99.90;;;;;;5052602;28;20096;-70
2022/09/19 07:47:28;;;;;;;13.30;2.90;;;30.50;99.90;;;;;;5053032;28;20523;-71
2022/09/19 07:49:54;;;;;;;10.70;2.70;;;30.20;99.90;;;;;;5052516;28;20040;-70
2022/09/19 07:52:22;;;;;;;9.52;2.75;;;30.00;99.90;;;;;;5051362;28;20029;-71
2022/09/19 07:54:49;;;;;;;11.30;2.95;;;30.40;99.90;;;;;;5052298;28;20433;-71
2022/09/19 07:57:16;;;;;;;12.48;2.80;;;30.70;99.90;;;;;;5051698;28;20041;-71
2022/09/19 07:59:42;;;;;;;15.15;2.72;;;31.00;99.90;;;;;;5052293;28;20025;-71
2022/09/19 08:02:11;;;;;;;8.32;2.50;;;30.90;99.90;;;;;;5051761;28;20536;-71
2022/09/19 08:04:37;;;;;;;14.75;2.80;;;31.00;99.90;;;;;;5051994;28;20021;-71
2022/09/19 08:07:04;;;;;;;;;;;31.20;99.90;;;;;;5052605;28;20029;-71
2022/09/19 08:09:30;;;;;;;11.23;3.03;;;31.30;99.90;;;;;;5051776;28;20003;-71
2022/09/19 08:11:57;;;;;;;15.60;3.08;;;31.40;99.90;;;;;;5052361;28;20032;-71
2022/09/19 08:14:23;;;;;;;15.02;3.22;;;31.20;99.90;;;;;;5051936;28;20540;-71
2022/09/19 08:16:51;;;;;;;11.40;2.95;;;31.10;99.90;;;;;;5051985;28;20131;-71
2022/09/19 08:19:17;;;;;;;16.70;3.25;;;31.30;99.90;;;;;;5052258;28;20025;-71
2022/09/19 08:21:43;;;;;;;12.43;3.03;;;31.40;99.90;;;;;;5051261;28;20358;-71
2022/09/19 08:24:09;;;;;;;9.27;2.78;;;31.00;99.90;;;;;;5050867;28;20474;-71
2022/09/19 08:26:35;;;;;;;7.97;2.40;;;30.80;99.90;;;;;;5052420;28;20029;-72
2022/09/19 08:29:01;;;;;;;10.27;3.05;;;30.80;99.90;;;;;;5052607;28;20025;-71
2022/09/19 08:31:27;;;;;;;13.88;2.88;;;30.80;99.90;;;;;;5052346;28;20045;-72
2022/09/19 08:33:53;;;;;;;13.40;2.80;;;30.70;99.90;;;;;;5050540;28;20029;-72
2022/09/19 08:36:19;;;;;;;11.52;2.53;;;30.80;99.90;;;;;;5052570;28;20036;-72
2022/09/19 08:38:45;;;;;;;10.70;2.83;;;30.80;99.90;;;;;;5052803;28;20050;-72
2022/09/19 08:41:25;;;;;;;13.95;3.22;;;30.90;99.90;;;;;;5052764;28;20029;-71
2022/09/19 08:44:31;;;;;;;12.38;2.83;;;31.10;99.90;;;;;;5052684;28;20369;-72
2022/09/19 08:47:09;;;;;;;11.43;2.80;;;31.10;99.90;;;;;;5029763;28;20095;-72
2022/09/19 08:49:45;;;;;;;9.77;2.40;;;30.60;99.90;;;;;;5030058;28;20057;-72
2022/09/19 08:52:24;;;;;;;15.80;3.13;;;30.70;99.90;;;;;;5030267;28;20033;-72
2022/09/19 08:54:52;;;;;;;8.65;2.50;;;30.80;99.90;;;;;;5030167;28;20385;-72
2022/09/19 08:57:25;;;;;;;11.57;2.78;;;30.30;99.90;;;;;;5030033;28;20064;-72
2022/09/19 08:59:58;;;;;;;11.80;4.70;;;30.40;99.90;;;;;;5029794;28;20045;-72
2022/09/19 09:02:56;;;;;;;13.80;3.83;;;30.40;99.90;;;;;;5030047;28;20486;-71
2022/09/19 09:05:34;;;;;;;11.25;2.65;;;30.50;99.90;;;;;;5030116;28;20041;-71
2022/09/19 09:08:09;;;;;;;13.57;3.05;;;30.30;99.90;;;;;;5029785;28;20072;-72
2022/09/19 09:10:56;;;;;;;12.02;2.92;;;30.20;99.90;;;;;;5029121;28;20049;-71
2022/09/19 09:13:46;;;;;;;11.98;2.90;;;30.40;99.90;;;;;;5029586;28;20445;-72
2022/09/19 09:16:40;;;;;;;10.48;2.80;;;30.30;99.90;;;;;;5029744;28;20045;-73
2022/09/19 09:19:17;;;;;;;13.13;3.28;;;30.20;99.90;;;;;;5029139;28;20581;-72
2022/09/19 09:22:16;;;;;;;13.25;3.30;;;30.20;99.90;;;;;;5031838;28;20041;-73
2022/09/19 09:24:51;;;;;;;12.40;2.75;;;30.40;99.90;;;;;;5050940;28;20013;-72
2022/09/19 09:27:23;;;;;;;12.18;2.95;;;30.50;99.90;;;;;;5051057;28;20147;-72
2022/09/19 09:29:55;;;;;;;14.85;3.33;;;30.60;99.90;;;;;;5050992;28;20029;-72
2022/09/19 09:32:30;;;;;;;10.95;2.90;;;30.60;99.90;;;;;;5051306;28;20173;-72
2022/09/19 09:35:02;;;;;;;11.60;2.47;;;30.50;99.90;;;;;;5054713;28;20123;-72
2022/09/19 09:37:35;;;;;;;10.85;2.60;;;30.70;99.90;;;;;;5055034;28;20036;-72
2022/09/19 09:40:12;;;;;;;15.50;2.63;;;30.50;99.90;;;;;;5053413;28;20036;-72
2022/09/19 09:42:50;;;;;;;12.00;2.40;;;30.30;99.90;;;;;;5054205;28;20116;-72
2022/09/19 09:45:44;;;;;;;9.50;2.22;;;30.30;99.90;;;;;;5054809;28;20029;-73
2022/09/19 09:48:26;;;;;;;14.23;2.30;;;30.20;99.90;;;;;;5054507;28;20029;-72
2022/09/19 09:51:32;;;;;;;9.98;2.80;;;30.20;99.90;;;;;;5054299;28;20114;-72
2022/09/19 09:57:47;;;;;;;11.60;2.67;;;30.10;99.90;;;;;;5054343;28;20082;-72
2022/09/19 10:03:37;;;;;;;12.52;3.28;;;30.00;99.90;;;;;;5054099;28;20040;-72
2022/09/19 10:06:25;;;;;;;12.90;2.43;;;30.10;99.90;;;;;;5053405;28;20055;-71
2022/09/19 10:08:59;;;;;;;13.48;2.50;;;30.10;99.90;;;;;;5054379;28;20056;-72
2022/09/19 10:11:42;;;;;;;10.02;2.30;;;30.20;99.90;;;;;;5052102;28;20041;-72
2022/09/19 10:14:23;;;;;;;9.40;2.05;;;30.30;99.90;;;;;;5053642;28;20107;-73
2022/09/19 10:16:53;;;;;;;10.15;1.98;;;30.20;99.90;;;;;;5054064;28;20029;-72
2022/09/19 10:19:35;;;;;;;13.38;2.65;;;30.20;99.90;;;;;;5053610;28;20055;-72
2022/09/19 10:22:01;;;;;;;12.63;2.15;;;30.10;99.90;;;;;;5054028;28;20128;-73
2022/09/19 10:24:42;;;;;;;;;;;30.20;99.90;;;;;;5054361;28;20058;-72
2022/09/19 10:27:12;;;;;;;10.80;2.13;;;30.40;99.90;;;;;;5053888;28;19912;-72
2022/09/19 10:29:59;;;;;;;7.80;2.03;;;30.40;99.90;;;;;;5054268;28;20024;-72
2022/09/19 10:32:36;;;;;;;10.05;2.13;;;30.50;99.90;;;;;;5053693;28;20530;-73
2022/09/19 10:35:32;;;;;;;9.38;1.85;;;30.50;99.90;;;;;;5054040;28;20470;-72
2022/09/19 10:38:02;;;;;;;10.43;2.28;;;30.40;99.90;;;;;;5051264;28;20056;-72
2022/09/19 10:40:30;;;;;;;8.65;1.92;;;30.30;99.90;;;;;;5053268;28;20496;-72
2022/09/19 10:42:57;;;;;;;13.43;2.47;;;30.30;99.90;;;;;;5053181;28;20025;-72
2022/09/19 10:45:29;;;;;;;7.07;2.25;;;30.50;99.90;;;;;;5052696;28;20033;-72
2022/09/19 10:48:02;;;;;;;7.80;2.10;;;30.50;99.90;;;;;;5052080;28;20448;-72
2022/09/19 10:50:29;;;;;;;8.15;2.10;;;30.70;99.90;;;;;;5052750;28;20043;-73
2022/09/19 10:53:05;;;;;;;8.35;2.03;;;30.70;99.90;;;;;;5052869;28;20056;-73
2022/09/19 10:55:34;;;;;;;;;;;30.70;99.90;;;;;;5053441;28;20481;-72
2022/09/19 10:58:12;;;;;;;9.80;1.80;;;30.60;99.90;;;;;;5051994;28;19999;-72
2022/09/19 11:00:52;;;;;;;9.27;2.17;;;30.70;99.90;;;;;;5053534;28;20382;-72
2022/09/19 11:03:23;;;;;;;5.35;1.67;;;30.50;99.90;;;;;;5051867;28;20357;-72
2022/09/19 11:06:13;;;;;;;12.50;2.08;;;30.40;99.90;;;;;;5052117;28;20108;-72
2022/09/19 11:08:44;;;;;;;9.70;2.03;;;30.40;99.90;;;;;;5052840;28;20032;-72
2022/09/19 11:11:33;;;;;;;8.85;1.80;;;30.30;99.90;;;;;;5052855;28;20243;-72
2022/09/19 11:14:19;;;;;;;9.57;2.20;;;30.30;99.90;;;;;;5052151;28;20389;-72
2022/09/19 11:17:04;;;;;;;10.07;1.83;;;30.40;99.90;;;;;;5052707;28;20021;-71
2022/09/19 11:19:52;;;;;;;6.05;1.65;;;30.60;99.90;;;;;;5053688;28;20512;-73
2022/09/19 11:22:43;;;;;;;6.82;1.60;;;30.60;99.90;;;;;;5053948;28;20028;-71
2022/09/19 11:25:22;;;;;;;10.25;2.08;;;30.50;99.90;;;;;;5053639;28;20342;-72
2022/09/19 11:28:12;;;;;;;8.82;1.48;;;30.60;99.90;;;;;;5052279;28;20078;-71
2022/09/19 11:31:17;;;;;;;6.90;1.60;;;30.50;99.90;;;;;;5053295;28;20037;-72
2022/09/19 11:33:58;;;;;;;7.05;1.48;;;30.50;99.90;;;;;;5031252;28;20052;-71
2022/09/19 11:36:39;;;;;;;8.98;1.92;;;30.40;99.90;;;;;;5014633;28;20037;-71
2022/09/19 11:39:48;;;;;;;10.25;1.90;;;30.20;99.90;;;;;;5031452;28;20069;-71
2022/09/19 11:42:43;;;;;;;6.07;1.40;;;30.20;99.90;;;;;;5031297;28;20444;-72
2022/09/19 11:45:19;;;;;;;7.20;1.53;;;30.10;99.90;;;;;;5031605;28;20060;-72
2022/09/19 11:48:07;;;;;;;6.75;1.50;;;30.20;99.90;;;;;;5031097;28;20041;-72
2022/09/19 11:50:43;;;;;;;5.13;1.40;;;30.20;99.90;;;;;;5030977;28;20041;-71
2022/09/19 11:53:40;;;;;;;7.90;1.30;;;30.40;99.90;;;;;;5014506;28;20052;-73
2022/09/19 11:56:36;;;;;;;7.35;1.70;;;30.20;99.90;;;;;;5030302;28;20038;-72
2022/09/19 11:59:28;;;;;;;7.38;1.50;;;30.40;99.90;;;;;;5030890;28;20478;-72
2022/09/19 12:02:36;;;;;;;8.13;1.73;;;30.10;99.90;;;;;;5030932;28;20029;-72
2022/09/19 12:05:35;;;;;;;10.77;1.73;;;29.90;99.90;;;;;;5031250;28;20457;-72
2022/09/19 12:08:28;;;;;;;8.10;1.65;;;29.80;99.90;;;;;;5031359;28;20072;-73
2022/09/19 12:10:57;;;;;;;10.05;1.75;;;29.80;99.90;;;;;;5032196;28;20052;-71
2022/09/19 12:13:51;;;;;;;8.13;1.33;;;29.80;99.90;;;;;;5053005;28;20068;-71
2022/09/19 12:16:44;;;;;;;12.10;2.07;;;29.70;99.90;;;;;;5051390;28;20424;-72
2022/09/19 12:19:21;;;;;;;5.00;1.40;;;29.80;99.90;;;;;;5053006;28;20028;-72
2022/09/19 12:21:52;;;;;;;10.05;1.73;;;29.80;99.90;;;;;;5053016;28;20507;-72
2022/09/19 12:27:31;;;;;;;10.45;2.13;;;30.10;99.90;;;;;;5053440;28;20040;-72
2022/09/19 12:30:18;;;;;;;11.35;1.70;;;30.20;99.90;;;;;;5053280;28;20036;-71
2022/09/19 12:32:57;;;;;;;7.43;1.50;;;30.10;99.90;;;;;;5052839;28;20060;-71
2022/09/19 12:35:41;;;;;;;7.43;1.67;;;30.30;99.90;;;;;;5053533;28;20021;-72
2022/09/19 12:38:36;;;;;;;10.90;1.57;;;29.70;99.90;;;;;;5053329;28;20029;-72
2022/09/19 12:41:55;;;;;;;7.10;1.63;;;29.80;99.90;;;;;;5052950;28;20258;-72
2022/09/19 12:44:35;;;;;;;8.95;1.90;;;29.80;99.90;;;;;;5030958;28;20034;-72
2022/09/19 12:47:41;;;;;;;9.05;2.00;;;29.80;99.90;;;;;;5031106;28;20040;-73
2022/09/19 12:50:44;;;;;;;8.70;1.60;;;29.80;99.90;;;;;;5030380;28;20053;-71
2022/09/19 12:53:22;;;;;;;5.72;1.58;;;30.00;99.90;;;;;;4990393;28;20041;-71
2022/09/19 12:55:56;;;;;;;10.50;1.85;;;30.20;99.90;;;;;;4990868;28;20034;-72
2022/09/19 12:58:48;;;;;;;10.02;2.00;;;30.10;99.90;;;;;;4991238;28;20039;-72
2022/09/19 13:01:31;;;;;;;8.15;2.00;;;30.10;99.90;;;;;;4980470;28;20045;-71
2022/09/19 13:04:25;;;;;;;9.73;1.75;;;30.30;99.90;;;;;;4991039;28;20483;-72
2022/09/19 13:06:57;;;;;;;7.63;1.80;;;30.50;99.90;;;;;;4991174;28;20382;-71
2022/09/19 13:09:26;;;;;;;8.30;1.95;;;30.50;99.90;;;;;;4995048;28;20038;-72
2022/09/19 13:12:00;;;;;;;11.13;1.80;;;30.70;99.90;;;;;;4994625;28;20038;-72
2022/09/19 13:14:38;;;;;;;7.65;2.05;;;30.90;99.90;;;;;;4994965;28;20121;-71
2022/09/19 13:25:37;;;;;;;7.68;1.80;;;30.70;99.90;;;;;;5014765;28;20458;-73
2022/09/19 13:28:22;;;;;;;7.88;1.50;;;30.70;99.90;;;;;;5015043;28;20541;-71
2022/09/19 13:30:57;;;;;;;4.55;1.38;;;30.60;99.90;;;;;;5052848;28;20473;-71
2022/09/19 13:33:28;;;;;;;8.05;1.70;;;30.50;99.90;;;;;;5056803;28;20045;-72
2022/09/19 13:35:59;;;;;;;7.32;1.70;;;30.40;99.90;;;;;;5056615;28;20483;-72
2022/09/19 13:38:38;;;;;;;6.82;1.80;;;30.00;99.90;;;;;;5056432;28;20108;-71
2022/09/19 13:41:14;;;;;;;4.93;1.40;;;30.10;99.90;;;;;;5056426;28;20105;-71
2022/09/19 13:43:48;;;;;;;7.32;1.80;;;30.30;99.90;;;;;;5056237;28;20028;-71
2022/09/19 13:46:43;;;;;;;7.40;1.67;;;30.30;99.90;;;;;;5055732;28;20037;-71